sensor_id;sensor_type;location;lat;lon;timestamp;pressure;altitude;pressure_sealevel;temperature;humidity
53719;BME280;39616;48.872;9.390;2022-10-17T00:00:43;98869.31;;;11.54;100.00
53719;BME280;39616;48.872;9.390;2022-10-17T00:03:14;98874.28;;;11.47;100.00
53719;BME280;39616;48.872;9.390;2022-10-17T00:05:46;98868.13;;;11.42;100.00
53719;BME280;39616;48.872;9.390;2022-10-17T00:08:17;98865.91;;;11.44;100.00
53719;BME280;39616;48.872;9.390;2022-10-17T00:10:57;98866.69;;;11.44;100.00
53719;BME280;39616;48.872;9.390;2022-10-17T00:13:28;98865.09;;;11.43;100.00
53719;BME280;39616;48.872;9.390;2022-10-17T00:15:58;98868.03;;;11.47;100.00
53719;BME280;39616;48.872;9.390;2022-10-17T00:18:29;98868.63;;;11.44;100.00
53719;BME280;39616;48.872;9.390;2022-10-17T00:20:59;98861.47;;;11.53;100.00
53719;BME280;39616;48.872;9.390;2022-10-17T00:23:29;98864.34;;;11.61;100.00
53719;BME280;39616;48.872;9.390;2022-10-17T00:26:01;98865.94;;;11.63;100.00
53719;BME280;39616;48.872;9.390;2022-10-17T00:28:32;98876.09;;;11.57;100.00
53719;BME280;39616;48.872;9.390;2022-10-17T00:31:04;98875.56;;;11.55;100.00
53719;BME280;39616;48.872;9.390;2022-10-17T00:33:34;98877.75;;;11.53;100.00
53719;BME280;39616;48.872;9.390;2022-10-17T00:36:07;98878.03;;;11.51;100.00
53719;BME280;39616;48.872;9.390;2022-10-17T00:38:40;98884.81;;;11.54;100.00
53719;BME280;39616;48.872;9.390;2022-10-17T00:41:13;98883.22;;;11.48;100.00
53719;BME280;39616;48.872;9.390;2022-10-17T00:46:32;98883.75;;;11.50;100.00
53719;BME280;39616;48.872;9.390;2022-10-17T00:49:07;98883.00;;;11.44;100.00
53719;BME280;39616;48.872;9.390;2022-10-17T00:51:45;98883.75;;;11.50;100.00
53719;BME280;39616;48.872;9.390;2022-10-17T00:54:18;98885.13;;;11.47;100.00
53719;BME280;39616;48.872;9.390;2022-10-17T00:56:50;98886.13;;;11.32;100.00
53719;BME280;39616;48.872;9.390;2022-10-17T00:59:21;98890.81;;;11.27;100.00
53719;BME280;39616;48.872;9.390;2022-10-17T01:02:10;98891.31;;;11.29;100.00
53719;BME280;39616;48.872;9.390;2022-10-17T01:04:42;98886.22;;;11.22;100.00
53719;BME280;39616;48.872;9.390;2022-10-17T01:07:13;98887.38;;;11.16;100.00
53719;BME280;39616;48.872;9.390;2022-10-17T01:09:44;98881.19;;;11.10;100.00
53719;BME280;39616;48.872;9.390;2022-10-17T01:15:04;98879.22;;;11.16;100.00
53719;BME280;39616;48.872;9.390;2022-10-17T01:18:17;98883.81;;;11.16;100.00
53719;BME280;39616;48.872;9.390;2022-10-17T01:21:20;98886.53;;;11.16;100.00
53719;BME280;39616;48.872;9.390;2022-10-17T01:24:28;98881.72;;;11.12;100.00
53719;BME280;39616;48.872;9.390;2022-10-17T01:30:02;98888.03;;;11.03;100.00
53719;BME280;39616;48.872;9.390;2022-10-17T01:32:41;98879.41;;;10.96;100.00
53719;BME280;39616;48.872;9.390;2022-10-17T01:37:58;98886.50;;;10.92;100.00
53719;BME280;39616;48.872;9.390;2022-10-17T01:40:48;98882.66;;;10.98;100.00
53719;BME280;39616;48.872;9.390;2022-10-17T01:43:40;98890.81;;;10.98;100.00
53719;BME280;39616;48.872;9.390;2022-10-17T01:46:22;98890.56;;;10.94;100.00
53719;BME280;39616;48.872;9.390;2022-10-17T01:48:56;98881.03;;;10.97;100.00
53719;BME280;39616;48.872;9.390;2022-10-17T01:54:57;98882.69;;;10.93;100.00
53719;BME280;39616;48.872;9.390;2022-10-17T01:57:36;98890.59;;;10.89;100.00
53719;BME280;39616;48.872;9.390;2022-10-17T02:00:11;98883.88;;;10.81;100.00
53719;BME280;39616;48.872;9.390;2022-10-17T02:02:45;98880.09;;;10.77;100.00
53719;BME280;39616;48.872;9.390;2022-10-17T02:05:20;98883.63;;;10.78;100.00
53719;BME280;39616;48.872;9.390;2022-10-17T02:07:53;98875.22;;;10.79;100.00
53719;BME280;39616;48.872;9.390;2022-10-17T02:10:32;98879.59;;;10.75;100.00
53719;BME280;39616;48.872;9.390;2022-10-17T02:13:12;98883.94;;;10.76;100.00
53719;BME280;39616;48.872;9.390;2022-10-17T02:21:17;98876.34;;;10.73;100.00
53719;BME280;39616;48.872;9.390;2022-10-17T02:27:04;98882.38;;;10.65;100.00
53719;BME280;39616;48.872;9.390;2022-10-17T02:29:46;98874.28;;;10.60;100.00
53719;BME280;39616;48.872;9.390;2022-10-17T02:32:30;98870.00;;;10.54;100.00
53719;BME280;39616;48.872;9.390;2022-10-17T02:35:04;98881.09;;;10.52;100.00
53719;BME280;39616;48.872;9.390;2022-10-17T02:37:40;98882.25;;;10.46;100.00
53719;BME280;39616;48.872;9.390;2022-10-17T02:40:14;98884.97;;;10.46;100.00
53719;BME280;39616;48.872;9.390;2022-10-17T02:42:46;98877.09;;;10.45;100.00
53719;BME280;39616;48.872;9.390;2022-10-17T02:45:17;98885.78;;;10.42;100.00
53719;BME280;39616;48.872;9.390;2022-10-17T02:47:59;98887.69;;;10.41;100.00
53719;BME280;39616;48.872;9.390;2022-10-17T02:53:45;98885.22;;;10.45;100.00
53719;BME280;39616;48.872;9.390;2022-10-17T02:56:20;98892.84;;;10.43;100.00
53719;BME280;39616;48.872;9.390;2022-10-17T02:58:54;98885.28;;;10.39;100.00
53719;BME280;39616;48.872;9.390;2022-10-17T03:01:28;98883.66;;;10.38;100.00
53719;BME280;39616;48.872;9.390;2022-10-17T03:04:10;98895.03;;;10.40;100.00
53719;BME280;39616;48.872;9.390;2022-10-17T03:06:40;98889.59;;;10.40;100.00
53719;BME280;39616;48.872;9.390;2022-10-17T03:09:11;98890.97;;;10.38;100.00
53719;BME280;39616;48.872;9.390;2022-10-17T03:11:42;98892.06;;;10.37;100.00
53719;BME280;39616;48.872;9.390;2022-10-17T03:14:12;98892.88;;;10.37;100.00
53719;BME280;39616;48.872;9.390;2022-10-17T03:16:42;98898.28;;;10.37;100.00
53719;BME280;39616;48.872;9.390;2022-10-17T03:19:13;98884.75;;;10.37;100.00
53719;BME280;39616;48.872;9.390;2022-10-17T03:21:43;98895.06;;;10.35;100.00
53719;BME280;39616;48.872;9.390;2022-10-17T03:24:13;98902.09;;;10.36;100.00
53719;BME280;39616;48.872;9.390;2022-10-17T03:26:44;98901.28;;;10.36;100.00
53719;BME280;39616;48.872;9.390;2022-10-17T03:29:14;98912.41;;;10.34;100.00
53719;BME280;39616;48.872;9.390;2022-10-17T03:31:44;98910.28;;;10.26;100.00
53719;BME280;39616;48.872;9.390;2022-10-17T03:34:14;98913.56;;;10.18;100.00
53719;BME280;39616;48.872;9.390;2022-10-17T03:36:48;98909.00;;;10.08;100.00
53719;BME280;39616;48.872;9.390;2022-10-17T03:39:18;98912.84;;;10.02;100.00
53719;BME280;39616;48.872;9.390;2022-10-17T03:41:48;98906.91;;;9.95;100.00
53719;BME280;39616;48.872;9.390;2022-10-17T03:44:19;98912.63;;;9.88;100.00
53719;BME280;39616;48.872;9.390;2022-10-17T03:46:49;98915.88;;;9.85;100.00
53719;BME280;39616;48.872;9.390;2022-10-17T03:49:19;98913.44;;;9.89;100.00
53719;BME280;39616;48.872;9.390;2022-10-17T03:51:55;98918.59;;;9.90;100.00
53719;BME280;39616;48.872;9.390;2022-10-17T03:54:25;98913.44;;;9.89;100.00
53719;BME280;39616;48.872;9.390;2022-10-17T03:56:55;98910.47;;;9.85;100.00
53719;BME280;39616;48.872;9.390;2022-10-17T03:59:25;98916.44;;;9.82;100.00
53719;BME280;39616;48.872;9.390;2022-10-17T04:01:56;98921.03;;;9.82;100.00
53719;BME280;39616;48.872;9.390;2022-10-17T04:04:26;98921.88;;;9.77;100.00
53719;BME280;39616;48.872;9.390;2022-10-17T04:06:56;98911.59;;;9.74;100.00
53719;BME280;39616;48.872;9.390;2022-10-17T04:09:27;98927.03;;;9.74;100.00
53719;BME280;39616;48.872;9.390;2022-10-17T04:11:57;98918.63;;;9.75;100.00
53719;BME280;39616;48.872;9.390;2022-10-17T04:14:27;98924.88;;;9.76;100.00
53719;BME280;39616;48.872;9.390;2022-10-17T04:16:57;98934.31;;;9.78;100.00
53719;BME280;39616;48.872;9.390;2022-10-17T04:19:28;98929.97;;;9.82;100.00
53719;BME280;39616;48.872;9.390;2022-10-17T04:21:58;98923.19;;;9.85;100.00
53719;BME280;39616;48.872;9.390;2022-10-17T04:24:28;98930.22;;;9.86;100.00
53719;BME280;39616;48.872;9.390;2022-10-17T04:26:59;98935.66;;;9.86;100.00
53719;BME280;39616;48.872;9.390;2022-10-17T04:29:29;98929.72;;;9.84;100.00
53719;BME280;39616;48.872;9.390;2022-10-17T04:31:59;98934.06;;;9.80;100.00
53719;BME280;39616;48.872;9.390;2022-10-17T04:34:30;98939.75;;;9.83;100.00
53719;BME280;39616;48.872;9.390;2022-10-17T04:37:00;98932.94;;;9.86;100.00
53719;BME280;39616;48.872;9.390;2022-10-17T04:39:30;98941.31;;;9.95;100.00
53719;BME280;39616;48.872;9.390;2022-10-17T04:42:01;98948.84;;;10.08;100.00
53719;BME280;39616;48.872;9.390;2022-10-17T04:44:33;98943.16;;;10.04;100.00
53719;BME280;39616;48.872;9.390;2022-10-17T04:47:04;98944.22;;;10.13;100.00
53719;BME280;39616;48.872;9.390;2022-10-17T04:49:35;98952.59;;;10.12;100.00
53719;BME280;39616;48.872;9.390;2022-10-17T04:52:05;98944.72;;;10.26;100.00
53719;BME280;39616;48.872;9.390;2022-10-17T04:54:35;98949.28;;;10.35;100.00
53719;BME280;39616;48.872;9.390;2022-10-17T04:57:05;98948.50;;;10.30;100.00
53719;BME280;39616;48.872;9.390;2022-10-17T04:59:36;98948.00;;;10.18;100.00
53719;BME280;39616;48.872;9.390;2022-10-17T05:02:06;98947.69;;;10.19;100.00
53719;BME280;39616;48.872;9.390;2022-10-17T05:04:36;98938.53;;;10.10;100.00
53719;BME280;39616;48.872;9.390;2022-10-17T05:07:07;98942.09;;;10.05;100.00
53719;BME280;39616;48.872;9.390;2022-10-17T05:09:37;98944.81;;;10.00;100.00
53719;BME280;39616;48.872;9.390;2022-10-17T05:12:07;98946.16;;;9.98;100.00
53719;BME280;39616;48.872;9.390;2022-10-17T05:14:38;98945.94;;;9.89;100.00
53719;BME280;39616;48.872;9.390;2022-10-17T05:17:08;98953.28;;;9.83;100.00
53719;BME280;39616;48.872;9.390;2022-10-17T05:19:38;98955.16;;;9.83;100.00
53719;BME280;39616;48.872;9.390;2022-10-17T05:22:08;98963.03;;;9.79;100.00
53719;BME280;39616;48.872;9.390;2022-10-17T05:24:39;98958.19;;;9.76;100.00
53719;BME280;39616;48.872;9.390;2022-10-17T05:27:09;98958.16;;;9.71;100.00
53719;BME280;39616;48.872;9.390;2022-10-17T05:29:39;98955.47;;;9.71;100.00
53719;BME280;39616;48.872;9.390;2022-10-17T05:32:10;98951.94;;;9.71;100.00
53719;BME280;39616;48.872;9.390;2022-10-17T05:34:40;98955.47;;;9.71;100.00
53719;BME280;39616;48.872;9.390;2022-10-17T05:37:10;98952.50;;;9.73;100.00
53719;BME280;39616;48.872;9.390;2022-10-17T05:39:40;98961.94;;;9.75;100.00
53719;BME280;39616;48.872;9.390;2022-10-17T05:42:11;98960.88;;;9.76;100.00
53719;BME280;39616;48.872;9.390;2022-10-17T05:44:41;98965.72;;;9.79;100.00
53719;BME280;39616;48.872;9.390;2022-10-17T05:47:11;98972.25;;;9.83;100.00
53719;BME280;39616;48.872;9.390;2022-10-17T05:49:42;98975.22;;;9.87;100.00
53719;BME280;39616;48.872;9.390;2022-10-17T05:52:12;98976.00;;;9.92;100.00
53719;BME280;39616;48.872;9.390;2022-10-17T05:54:42;98974.63;;;9.95;100.00
53719;BME280;39616;48.872;9.390;2022-10-17T05:57:12;98981.16;;;9.89;100.00
53719;BME280;39616;48.872;9.390;2022-10-17T05:59:43;98973.03;;;9.89;100.00
53719;BME280;39616;48.872;9.390;2022-10-17T06:02:13;98985.75;;;9.88;100.00
53719;BME280;39616;48.872;9.390;2022-10-17T06:04:43;98983.34;;;9.87;100.00
53719;BME280;39616;48.872;9.390;2022-10-17T06:07:18;98985.72;;;9.93;100.00
53719;BME280;39616;48.872;9.390;2022-10-17T06:09:48;98989.25;;;9.99;100.00
53719;BME280;39616;48.872;9.390;2022-10-17T06:12:18;98995.19;;;10.06;100.00
53719;BME280;39616;48.872;9.390;2022-10-17T06:14:49;98997.31;;;10.14;100.00
53719;BME280;39616;48.872;9.390;2022-10-17T06:17:19;98995.66;;;10.24;100.00
53719;BME280;39616;48.872;9.390;2022-10-17T06:19:50;98987.78;;;10.32;100.00
53719;BME280;39616;48.872;9.390;2022-10-17T06:22:20;98984.22;;;10.42;100.00
53719;BME280;39616;48.872;9.390;2022-10-17T06:24:50;98990.41;;;10.48;100.00
53719;BME280;39616;48.872;9.390;2022-10-17T06:27:22;98985.50;;;10.55;100.00
53719;BME280;39616;48.872;9.390;2022-10-17T06:29:53;98992.53;;;10.61;100.00
53719;BME280;39616;48.872;9.390;2022-10-17T06:32:23;98988.66;;;10.72;100.00
53719;BME280;39616;48.872;9.390;2022-10-17T06:34:53;98995.41;;;10.80;100.00
53719;BME280;39616;48.872;9.390;2022-10-17T06:37:24;98994.50;;;10.89;100.00
53719;BME280;39616;48.872;9.390;2022-10-17T06:39:54;98990.88;;;11.04;100.00
53719;BME280;39616;48.872;9.390;2022-10-17T06:42:24;99004.03;;;11.21;100.00
53719;BME280;39616;48.872;9.390;2022-10-17T06:44:55;98999.97;;;11.53;100.00
53719;BME280;39616;48.872;9.390;2022-10-17T06:47:25;99000.53;;;11.79;100.00
53719;BME280;39616;48.872;9.390;2022-10-17T06:49:55;99003.84;;;12.00;100.00
53719;BME280;39616;48.872;9.390;2022-10-17T06:52:26;99010.09;;;12.24;100.00
53719;BME280;39616;48.872;9.390;2022-10-17T06:54:56;99008.97;;;12.30;100.00
53719;BME280;39616;48.872;9.390;2022-10-17T06:57:27;99016.56;;;12.52;100.00
53719;BME280;39616;48.872;9.390;2022-10-17T06:59:57;99012.00;;;13.04;100.00
53719;BME280;39616;48.872;9.390;2022-10-17T07:02:27;99013.78;;;13.47;100.00
53719;BME280;39616;48.872;9.390;2022-10-17T07:04:57;99017.84;;;13.96;100.00
53719;BME280;39616;48.872;9.390;2022-10-17T07:07:31;99025.31;;;14.32;100.00
53719;BME280;39616;48.872;9.390;2022-10-17T07:10:01;99024.00;;;14.70;100.00
53719;BME280;39616;48.872;9.390;2022-10-17T07:12:34;99016.19;;;15.14;100.00
53719;BME280;39616;48.872;9.390;2022-10-17T07:15:04;99025.44;;;15.49;100.00
53719;BME280;39616;48.872;9.390;2022-10-17T07:17:35;99032.22;;;15.74;100.00
53719;BME280;39616;48.872;9.390;2022-10-17T07:20:05;99029.56;;;15.91;100.00
53719;BME280;39616;48.872;9.390;2022-10-17T07:22:36;99020.16;;;16.15;100.00
53719;BME280;39616;48.872;9.390;2022-10-17T07:25:07;99024.94;;;16.40;96.62
53719;BME280;39616;48.872;9.390;2022-10-17T07:27:37;99032.22;;;16.62;94.70
53719;BME280;39616;48.872;9.390;2022-10-17T07:30:08;99029.31;;;16.67;92.00
53719;BME280;39616;48.872;9.390;2022-10-17T07:32:39;99030.28;;;16.63;91.74
53719;BME280;39616;48.872;9.390;2022-10-17T07:35:10;99033.25;;;16.84;91.35
53719;BME280;39616;48.872;9.390;2022-10-17T07:37:40;99035.16;;;16.75;94.60
53719;BME280;39616;48.872;9.390;2022-10-17T07:40:11;99043.13;;;17.02;89.30
53719;BME280;39616;48.872;9.390;2022-10-17T07:42:41;99031.34;;;17.10;89.16
53719;BME280;39616;48.872;9.390;2022-10-17T07:45:11;99030.53;;;17.27;89.71
53719;BME280;39616;48.872;9.390;2022-10-17T07:47:42;99039.53;;;17.71;87.13
53719;BME280;39616;48.872;9.390;2022-10-17T07:50:12;99031.50;;;18.13;85.45
53719;BME280;39616;48.872;9.390;2022-10-17T07:52:42;99045.09;;;18.39;83.04
53719;BME280;39616;48.872;9.390;2022-10-17T07:55:12;99046.09;;;18.73;79.83
53719;BME280;39616;48.872;9.390;2022-10-17T07:57:43;99050.44;;;18.74;77.54
53719;BME280;39616;48.872;9.390;2022-10-17T08:00:13;99052.28;;;19.12;76.01
53719;BME280;39616;48.872;9.390;2022-10-17T08:02:44;99049.91;;;19.43;79.78
53719;BME280;39616;48.872;9.390;2022-10-17T08:05:14;99045.41;;;19.60;74.53
53719;BME280;39616;48.872;9.390;2022-10-17T08:07:44;99053.91;;;20.00;71.87
53719;BME280;39616;48.872;9.390;2022-10-17T08:10:15;99057.22;;;19.93;71.25
53719;BME280;39616;48.872;9.390;2022-10-17T08:12:46;99059.38;;;19.13;73.54
53719;BME280;39616;48.872;9.390;2022-10-17T08:15:16;99066.19;;;18.18;77.93
53719;BME280;39616;48.872;9.390;2022-10-17T08:17:46;99064.25;;;18.18;80.81
53719;BME280;39616;48.872;9.390;2022-10-17T08:20:17;99066.53;;;18.07;80.58
53719;BME280;39616;48.872;9.390;2022-10-17T08:22:51;99071.47;;;17.58;83.98
53719;BME280;39616;48.872;9.390;2022-10-17T08:25:22;99070.16;;;17.82;85.70
53719;BME280;39616;48.872;9.390;2022-10-17T08:27:53;99074.59;;;18.51;80.11
53719;BME280;39616;48.872;9.390;2022-10-17T08:30:23;99067.59;;;18.71;80.44
53719;BME280;39616;48.872;9.390;2022-10-17T08:32:53;99070.63;;;18.78;80.71
53719;BME280;39616;48.872;9.390;2022-10-17T08:35:25;99077.22;;;19.27;77.93
53719;BME280;39616;48.872;9.390;2022-10-17T08:37:57;99079.38;;;20.09;77.76
53719;BME280;39616;48.872;9.390;2022-10-17T08:40:30;99085.00;;;20.13;73.70
53719;BME280;39616;48.872;9.390;2022-10-17T08:45:56;99089.13;;;20.52;70.76
53719;BME280;39616;48.872;9.390;2022-10-17T08:48:30;99088.13;;;20.36;70.38
53719;BME280;39616;48.872;9.390;2022-10-17T08:51:05;99092.91;;;20.84;68.59
53719;BME280;39616;48.872;9.390;2022-10-17T08:53:48;99093.13;;;20.67;68.48
53719;BME280;39616;48.872;9.390;2022-10-17T08:56:23;99089.22;;;21.45;70.25
53719;BME280;39616;48.872;9.390;2022-10-17T08:58:54;99084.41;;;21.70;66.43
53719;BME280;39616;48.872;9.390;2022-10-17T09:01:34;99080.09;;;21.85;65.03
53719;BME280;39616;48.872;9.390;2022-10-17T09:04:37;99084.66;;;22.09;64.48
53719;BME280;39616;48.872;9.390;2022-10-17T09:10:21;99081.31;;;22.63;62.65
53719;BME280;39616;48.872;9.390;2022-10-17T09:18:35;99074.88;;;23.65;58.21
53719;BME280;39616;48.872;9.390;2022-10-17T09:21:43;99087.09;;;23.63;58.01
53719;BME280;39616;48.872;9.390;2022-10-17T09:24:16;99085.63;;;24.08;57.87
53719;BME280;39616;48.872;9.390;2022-10-17T09:26:50;99084.72;;;24.24;56.45
53719;BME280;39616;48.872;9.390;2022-10-17T09:29:22;99080.28;;;24.19;58.36
53719;BME280;39616;48.872;9.390;2022-10-17T09:32:04;99078.69;;;24.41;55.69
53719;BME280;39616;48.872;9.390;2022-10-17T09:34:39;99081.53;;;24.45;55.75
53719;BME280;39616;48.872;9.390;2022-10-17T09:37:13;99070.53;;;24.06;57.78
53719;BME280;39616;48.872;9.390;2022-10-17T09:39:44;99076.94;;;24.10;56.10
53719;BME280;39616;48.872;9.390;2022-10-17T09:42:16;99081.38;;;23.92;58.74
53719;BME280;39616;48.872;9.390;2022-10-17T09:44:54;99077.81;;;24.14;56.60
53719;BME280;39616;48.872;9.390;2022-10-17T09:47:35;99084.34;;;24.25;56.07
53719;BME280;39616;48.872;9.390;2022-10-17T09:52:53;99089.22;;;23.51;54.55
53719;BME280;39616;48.872;9.390;2022-10-17T09:55:40;99083.69;;;23.31;55.94
53719;BME280;39616;48.872;9.390;2022-10-17T09:58:11;99087.72;;;23.53;57.81
53719;BME280;39616;48.872;9.390;2022-10-17T10:00:44;99083.03;;;23.57;55.12
53719;BME280;39616;48.872;9.390;2022-10-17T10:03:25;99076.03;;;23.63;53.31
53719;BME280;39616;48.872;9.390;2022-10-17T10:06:03;99075.81;;;23.92;56.09
53719;BME280;39616;48.872;9.390;2022-10-17T10:08:36;99076.56;;;23.89;56.36
53719;BME280;39616;48.872;9.390;2022-10-17T10:11:22;99071.22;;;24.22;54.96
53719;BME280;39616;48.872;9.390;2022-10-17T10:13:53;99072.63;;;24.35;54.50
53719;BME280;39616;48.872;9.390;2022-10-17T10:16:31;99076.03;;;24.25;51.96
53719;BME280;39616;48.872;9.390;2022-10-17T10:19:31;99073.50;;;23.94;52.43
53719;BME280;39616;48.872;9.390;2022-10-17T10:22:13;99066.91;;;24.02;53.34
53719;BME280;39616;48.872;9.390;2022-10-17T10:24:45;99064.75;;;24.15;53.76
53719;BME280;39616;48.872;9.390;2022-10-17T10:27:16;99074.38;;;24.44;53.28
53719;BME280;39616;48.872;9.390;2022-10-17T10:29:49;99073.06;;;24.15;54.51
53719;BME280;39616;48.872;9.390;2022-10-17T10:32:21;99078.91;;;24.78;54.27
53719;BME280;39616;48.872;9.390;2022-10-17T10:34:56;99082.25;;;25.18;52.25
53719;BME280;39616;48.872;9.390;2022-10-17T10:37:36;99082.94;;;25.38;53.32
53719;BME280;39616;48.872;9.390;2022-10-17T10:40:22;99085.34;;;25.73;49.80
53719;BME280;39616;48.872;9.390;2022-10-17T10:42:55;99087.31;;;25.72;49.00
53719;BME280;39616;48.872;9.390;2022-10-17T10:48:17;99091.44;;;25.82;48.61
53719;BME280;39616;48.872;9.390;2022-10-17T10:50:51;99087.22;;;25.65;49.57
53719;BME280;39616;48.872;9.390;2022-10-17T10:56:16;99089.91;;;25.58;51.83
53719;BME280;39616;48.872;9.390;2022-10-17T10:58:59;99099.88;;;25.63;49.90
53719;BME280;39616;48.872;9.390;2022-10-17T11:01:41;99092.28;;;25.56;49.73
53719;BME280;39616;48.872;9.390;2022-10-17T11:04:39;99090.59;;;25.18;50.72
53719;BME280;39616;48.872;9.390;2022-10-17T11:07:18;99085.13;;;24.98;51.50
53719;BME280;39616;48.872;9.390;2022-10-17T11:10:15;99090.81;;;24.79;52.54
53719;BME280;39616;48.872;9.390;2022-10-17T11:15:46;99087.22;;;24.78;52.46
53719;BME280;39616;48.872;9.390;2022-10-17T11:18:41;99082.09;;;24.80;56.62
53719;BME280;39616;48.872;9.390;2022-10-17T11:21:32;99084.28;;;24.94;54.54
53719;BME280;39616;48.872;9.390;2022-10-17T11:26:54;99080.06;;;24.77;52.19
53719;BME280;39616;48.872;9.390;2022-10-17T11:29:31;99075.47;;;24.89;51.66
53719;BME280;39616;48.872;9.390;2022-10-17T11:32:14;99078.78;;;24.98;53.68
53719;BME280;39616;48.872;9.390;2022-10-17T11:34:50;99074.78;;;25.22;54.50
53719;BME280;39616;48.872;9.390;2022-10-17T11:37:24;99068.91;;;25.27;52.58
53719;BME280;39616;48.872;9.390;2022-10-17T11:40:08;99067.34;;;25.29;53.38
53719;BME280;39616;48.872;9.390;2022-10-17T11:42:52;99060.94;;;25.25;51.09
53719;BME280;39616;48.872;9.390;2022-10-17T11:45:30;99066.94;;;25.27;50.01
53719;BME280;39616;48.872;9.390;2022-10-17T11:48:16;99050.25;;;25.24;49.02
53719;BME280;39616;48.872;9.390;2022-10-17T11:50:59;99061.28;;;25.20;49.96
53719;BME280;39616;48.872;9.390;2022-10-17T11:56:20;99055.94;;;25.35;51.47
53719;BME280;39616;48.872;9.390;2022-10-17T12:02:03;99053.13;;;25.65;49.45
53719;BME280;39616;48.872;9.390;2022-10-17T12:04:55;99050.28;;;25.61;49.96
53719;BME280;39616;48.872;9.390;2022-10-17T12:10:36;99049.75;;;25.82;49.86
53719;BME280;39616;48.872;9.390;2022-10-17T12:21:54;99043.56;;;25.99;49.34
53719;BME280;39616;48.872;9.390;2022-10-17T12:32:58;99042.03;;;26.02;50.20
53719;BME280;39616;48.872;9.390;2022-10-17T12:35:31;99027.84;;;26.14;49.44
53719;BME280;39616;48.872;9.390;2022-10-17T12:40:49;99032.84;;;25.98;48.09
53719;BME280;39616;48.872;9.390;2022-10-17T12:46:00;99031.75;;;26.10;47.57
53719;BME280;39616;48.872;9.390;2022-10-17T12:51:26;99034.03;;;25.97;47.21
53719;BME280;39616;48.872;9.390;2022-10-17T12:54:10;99044.97;;;25.79;47.41
53719;BME280;39616;48.872;9.390;2022-10-17T12:56:44;99046.44;;;25.73;47.97
53719;BME280;39616;48.872;9.390;2022-10-17T12:59:19;99043.44;;;25.51;49.08
53719;BME280;39616;48.872;9.390;2022-10-17T13:01:55;99044.16;;;25.45;51.43
53719;BME280;39616;48.872;9.390;2022-10-17T13:04:27;99048.56;;;24.89;52.24
53719;BME280;39616;48.872;9.390;2022-10-17T13:06:58;99051.81;;;24.68;53.36
53719;BME280;39616;48.872;9.390;2022-10-17T13:09:34;99045.16;;;24.73;52.88
53719;BME280;39616;48.872;9.390;2022-10-17T13:12:11;99048.72;;;24.73;53.20
53719;BME280;39616;48.872;9.390;2022-10-17T13:14:44;99050.63;;;24.69;52.41
53719;BME280;39616;48.872;9.390;2022-10-17T13:17:27;99056.16;;;24.43;53.43
53719;BME280;39616;48.872;9.390;2022-10-17T13:19:58;99052.28;;;24.47;53.36
53719;BME280;39616;48.872;9.390;2022-10-17T13:22:30;99055.56;;;24.33;54.03
53719;BME280;39616;48.872;9.390;2022-10-17T13:25:13;99066.53;;;24.26;55.18
53719;BME280;39616;48.872;9.390;2022-10-17T13:27:45;99064.88;;;23.99;55.78
53719;BME280;39616;48.872;9.390;2022-10-17T13:30:26;99075.81;;;23.92;56.11
53719;BME280;39616;48.872;9.390;2022-10-17T13:32:57;99077.66;;;23.84;56.05
53719;BME280;39616;48.872;9.390;2022-10-17T13:35:31;99083.50;;;23.79;56.76
53719;BME280;39616;48.872;9.390;2022-10-17T13:38:04;99087.00;;;23.76;56.34
53719;BME280;39616;48.872;9.390;2022-10-17T13:40:41;99082.25;;;23.76;55.64
53719;BME280;39616;48.872;9.390;2022-10-17T13:43:18;99092.28;;;23.65;56.14
53719;BME280;39616;48.872;9.390;2022-10-17T13:46:00;99098.78;;;23.53;57.18
53719;BME280;39616;48.872;9.390;2022-10-17T13:48:36;99095.50;;;23.48;57.39
53719;BME280;39616;48.872;9.390;2022-10-17T13:51:07;99100.72;;;23.33;58.23
53719;BME280;39616;48.872;9.390;2022-10-17T13:53:38;99098.03;;;23.37;58.85
53719;BME280;39616;48.872;9.390;2022-10-17T13:56:25;99103.16;;;23.35;57.62
53719;BME280;39616;48.872;9.390;2022-10-17T13:59:21;99108.88;;;23.26;58.50
53719;BME280;39616;48.872;9.390;2022-10-17T14:01:53;99100.06;;;23.21;58.91
53719;BME280;39616;48.872;9.390;2022-10-17T14:04:24;99100.63;;;23.10;58.18
53719;BME280;39616;48.872;9.390;2022-10-17T14:06:54;99106.94;;;23.11;58.13
53719;BME280;39616;48.872;9.390;2022-10-17T14:09:29;99101.34;;;23.07;59.28
53719;BME280;39616;48.872;9.390;2022-10-17T14:12:01;99106.00;;;23.03;58.56
53719;BME280;39616;48.872;9.390;2022-10-17T14:14:32;99099.22;;;23.01;58.97
53719;BME280;39616;48.872;9.390;2022-10-17T14:17:21;99103.44;;;22.95;58.94
53719;BME280;39616;48.872;9.390;2022-10-17T14:19:55;99101.69;;;22.90;60.22
53719;BME280;39616;48.872;9.390;2022-10-17T14:22:27;99105.75;;;22.93;59.70
53719;BME280;39616;48.872;9.390;2022-10-17T14:24:58;99104.66;;;22.81;60.19
53719;BME280;39616;48.872;9.390;2022-10-17T14:27:36;99107.88;;;22.83;60.76
53719;BME280;39616;48.872;9.390;2022-10-17T14:32:59;99107.09;;;22.83;59.46
53719;BME280;39616;48.872;9.390;2022-10-17T14:35:32;99107.09;;;22.83;58.57
53719;BME280;39616;48.872;9.390;2022-10-17T14:38:04;99106.75;;;22.69;58.58
53719;BME280;39616;48.872;9.390;2022-10-17T14:40:35;99114.50;;;22.63;59.07
53719;BME280;39616;48.872;9.390;2022-10-17T14:43:05;99102.19;;;22.60;61.26
53719;BME280;39616;48.872;9.390;2022-10-17T14:45:37;99113.69;;;22.47;59.13
53719;BME280;39616;48.872;9.390;2022-10-17T14:48:16;99116.00;;;22.60;59.99
53719;BME280;39616;48.872;9.390;2022-10-17T14:51:15;99118.16;;;22.51;59.86
53719;BME280;39616;48.872;9.390;2022-10-17T14:54:21;99120.66;;;22.40;60.22
53719;BME280;39616;48.872;9.390;2022-10-17T14:56:52;99116.81;;;22.29;61.08
53719;BME280;39616;48.872;9.390;2022-10-17T14:59:23;99117.19;;;22.28;60.70
53719;BME280;39616;48.872;9.390;2022-10-17T15:01:54;99123.31;;;22.21;61.17
53719;BME280;39616;48.872;9.390;2022-10-17T15:04:25;99118.38;;;22.14;60.75